createdAt,value
2023-07-24T00:00:04.634Z,20.39
2023-07-24T00:03:06.121Z,20.08
2023-07-24T00:06:07.627Z,19.32
2023-07-24T00:09:09.056Z,19.19
2023-07-24T00:12:10.438Z,18.80
2023-07-24T00:15:11.991Z,18.43
2023-07-24T00:18:13.380Z,18.28
2023-07-24T00:21:14.850Z,18.00
2023-07-24T00:24:16.379Z,17.74
2023-07-24T00:27:17.812Z,17.93
2023-07-24T00:30:19.339Z,18.26
2023-07-24T00:33:20.758Z,18.23
2023-07-24T00:36:23.362Z,18.24
2023-07-24T00:39:24.852Z,18.08
2023-07-24T00:42:26.281Z,17.79
2023-07-24T00:45:27.794Z,17.66
2023-07-24T00:48:29.660Z,17.58
2023-07-24T00:51:31.934Z,17.45
2023-07-24T00:54:34.947Z,17.44
2023-07-24T00:57:36.575Z,17.58
2023-07-24T01:00:39.680Z,17.27
2023-07-24T01:03:41.193Z,17.30
2023-07-24T01:06:42.761Z,17.37
2023-07-24T01:09:44.366Z,17.52
2023-07-24T01:13:01.113Z,17.31
2023-07-24T01:16:10.678Z,17.39
2023-07-24T01:19:47.376Z,17.50
2023-07-24T01:23:06.886Z,17.31
2023-07-24T01:26:09.107Z,17.14
2023-07-24T01:29:10.519Z,17.25
2023-07-24T01:32:11.957Z,17.35
2023-07-24T01:35:13.581Z,17.16
2023-07-24T01:38:15.683Z,17.15
2023-07-24T01:41:17.981Z,17.57
2023-07-24T01:44:19.484Z,17.15
2023-07-24T01:47:21.396Z,16.87
2023-07-24T01:50:22.829Z,17.15
2023-07-24T01:53:24.288Z,17.12
2023-07-24T01:56:25.794Z,16.93
2023-07-24T01:59:27.277Z,16.88
2023-07-24T02:02:28.744Z,16.95
2023-07-24T02:05:30.849Z,17.05
2023-07-24T02:08:32.288Z,17.06
2023-07-24T02:11:33.729Z,17.03
2023-07-24T02:14:35.174Z,17.15
2023-07-24T02:17:36.870Z,17.03
2023-07-24T02:20:38.297Z,17.00
2023-07-24T02:23:39.830Z,16.95
2023-07-24T02:26:41.231Z,16.86
2023-07-24T02:29:42.636Z,16.89
2023-07-24T02:32:44.089Z,16.90
2023-07-24T02:35:45.582Z,16.98
2023-07-24T02:38:47.032Z,16.77
2023-07-24T02:41:51.320Z,16.85
2023-07-24T02:44:54.178Z,16.89
2023-07-24T02:47:55.661Z,16.77
2023-07-24T02:50:57.143Z,16.86
2023-07-24T02:53:58.613Z,16.99
2023-07-24T02:57:00.043Z,16.99
2023-07-24T03:00:01.451Z,16.99
2023-07-24T03:03:03.025Z,16.85
2023-07-24T03:06:04.509Z,16.91
2023-07-24T03:09:05.919Z,16.96
2023-07-24T03:12:07.664Z,16.98
2023-07-24T03:15:09.450Z,16.90
2023-07-24T03:18:10.868Z,16.96
2023-07-24T03:21:12.346Z,16.98
2023-07-24T03:24:13.780Z,17.05
2023-07-24T03:27:15.258Z,16.99
2023-07-24T03:30:16.707Z,16.99
2023-07-24T03:33:18.106Z,17.13
2023-07-24T03:36:19.817Z,17.08
2023-07-24T03:39:21.964Z,17.11
2023-07-24T03:42:28.221Z,16.88
2023-07-24T03:45:29.822Z,16.79
2023-07-24T03:48:31.212Z,16.92
2023-07-24T03:51:34.316Z,16.88
2023-07-24T03:54:35.737Z,16.89
2023-07-24T03:57:37.319Z,16.77
2023-07-24T04:00:38.791Z,16.51
2023-07-24T04:03:40.347Z,16.54
2023-07-24T04:06:41.790Z,16.63
2023-07-24T04:09:43.250Z,16.67
2023-07-24T04:12:44.652Z,16.53
2023-07-24T04:15:46.171Z,16.51
2023-07-24T04:18:47.553Z,16.52
2023-07-24T04:21:48.984Z,16.52
2023-07-24T04:24:50.474Z,16.47
2023-07-24T04:27:51.999Z,16.45
2023-07-24T04:30:53.511Z,16.56
2023-07-24T04:33:54.998Z,16.38
2023-07-24T04:36:56.399Z,16.55
2023-07-24T04:39:58.049Z,16.61
2023-07-24T04:42:59.540Z,16.78
2023-07-24T04:46:01.031Z,16.80
2023-07-24T04:49:02.481Z,16.84
2023-07-24T04:52:04.269Z,17.11
2023-07-24T04:55:06.260Z,17.04
2023-07-24T04:58:07.645Z,17.03
2023-07-24T05:01:10.256Z,17.00
2023-07-24T05:04:11.768Z,17.11
2023-07-24T05:07:13.201Z,17.04
2023-07-24T05:10:14.806Z,17.12
2023-07-24T05:13:16.324Z,17.18
2023-07-24T05:16:17.785Z,17.08
2023-07-24T05:19:19.208Z,17.24
2023-07-24T05:22:20.768Z,16.94
2023-07-24T05:25:22.271Z,16.90
2023-07-24T05:28:23.680Z,16.90
2023-07-24T05:31:25.140Z,16.95
2023-07-24T05:34:27.172Z,17.09
2023-07-24T05:37:28.581Z,17.38
2023-07-24T05:40:29.965Z,17.37
2023-07-24T05:43:32.258Z,17.38
2023-07-24T05:46:33.953Z,17.64
2023-07-24T05:49:35.575Z,17.54
2023-07-24T05:52:36.984Z,17.72
2023-07-24T05:55:38.422Z,17.72
2023-07-24T05:58:39.821Z,17.70
2023-07-24T06:01:41.382Z,17.83
2023-07-24T06:04:42.827Z,17.81
2023-07-24T06:07:44.423Z,17.99
2023-07-24T06:10:48.942Z,18.27
2023-07-24T06:13:50.597Z,18.15
2023-07-24T06:16:52.037Z,18.08
2023-07-24T06:19:53.435Z,18.12
2023-07-24T06:22:54.834Z,18.40
2023-07-24T06:25:56.456Z,18.15
2023-07-24T06:28:57.923Z,18.33
2023-07-24T06:31:59.343Z,18.19
2023-07-24T06:35:00.768Z,18.29
2023-07-24T06:38:02.224Z,18.34
2023-07-24T06:41:04.133Z,18.34
2023-07-24T06:44:05.572Z,18.21
2023-07-24T06:47:07.049Z,18.56
2023-07-24T06:50:09.059Z,18.72
2023-07-24T06:53:10.553Z,18.56
2023-07-24T06:56:12.044Z,18.84
2023-07-24T06:59:13.513Z,18.93
2023-07-24T07:02:14.940Z,18.90
2023-07-24T07:05:16.511Z,18.94
2023-07-24T07:08:17.911Z,19.02
2023-07-24T07:11:19.327Z,19.00
2023-07-24T07:14:20.802Z,19.19
2023-07-24T07:17:22.260Z,19.09
2023-07-24T07:20:23.711Z,19.14
2023-07-24T07:23:25.152Z,19.19
2023-07-24T07:26:26.631Z,19.50
2023-07-24T07:29:28.098Z,19.31
2023-07-24T07:32:29.552Z,19.29
2023-07-24T07:35:31.053Z,19.47
2023-07-24T07:38:33.057Z,19.28
2023-07-24T07:41:34.485Z,19.30
2023-07-24T07:44:35.975Z,19.54
2023-07-24T07:47:37.748Z,19.89
2023-07-24T07:50:39.239Z,19.94
2023-07-24T07:53:41.421Z,19.98
2023-07-24T07:56:43.264Z,19.76
2023-07-24T07:59:44.758Z,19.50
2023-07-24T08:02:46.170Z,19.72
2023-07-24T08:05:47.651Z,19.88
2023-07-24T08:08:49.113Z,19.82
2023-07-24T08:11:52.244Z,19.80
2023-07-24T08:14:53.648Z,20.07
2023-07-24T08:17:55.077Z,20.43
2023-07-24T08:20:56.517Z,20.71
2023-07-24T08:23:59.100Z,20.31
2023-07-24T08:27:00.522Z,20.20
2023-07-24T08:30:02.000Z,20.41
2023-07-24T08:33:03.979Z,20.78
2023-07-24T08:36:07.582Z,20.75
2023-07-24T08:39:09.015Z,20.84
2023-07-24T08:42:12.245Z,20.83
2023-07-24T08:45:14.839Z,20.91
2023-07-24T08:48:16.638Z,20.91
2023-07-24T08:51:19.927Z,21.07
2023-07-24T08:54:21.415Z,21.61
2023-07-24T08:57:23.072Z,21.60
2023-07-24T09:00:24.540Z,21.49
2023-07-24T09:03:26.425Z,21.61
2023-07-24T09:06:28.861Z,21.29
2023-07-24T09:09:32.120Z,21.35
2023-07-24T09:12:33.518Z,21.49
2023-07-24T09:15:44.896Z,21.58
2023-07-24T09:18:46.313Z,21.27
2023-07-24T09:21:47.788Z,21.46
2023-07-24T09:24:53.975Z,21.84
2023-07-24T09:27:55.613Z,21.42
2023-07-24T09:30:59.229Z,21.93
2023-07-24T09:34:00.795Z,21.80
2023-07-24T09:37:02.426Z,22.23
2023-07-24T09:40:07.451Z,22.05
2023-07-24T09:43:40.988Z,21.97
2023-07-24T09:46:47.789Z,22.12
2023-07-24T09:50:04.898Z,21.93
2023-07-24T09:53:07.081Z,21.91
2023-07-24T09:56:10.643Z,21.37
2023-07-24T09:59:13.291Z,21.42
2023-07-24T10:02:14.832Z,21.02
2023-07-24T10:05:17.061Z,21.01
2023-07-24T10:08:20.037Z,20.64
2023-07-24T10:11:21.688Z,20.76
2023-07-24T10:14:23.391Z,20.87
2023-07-24T10:17:41.920Z,20.78
2023-07-24T10:20:43.585Z,20.69
2023-07-24T10:23:50.026Z,21.18
2023-07-24T10:26:56.190Z,20.96
2023-07-24T10:30:22.599Z,21.46
2023-07-24T10:33:33.155Z,21.19
2023-07-24T10:36:37.023Z,21.48
2023-07-24T10:39:42.648Z,21.61
2023-07-24T10:42:44.141Z,21.27
2023-07-24T10:45:52.496Z,21.30
2023-07-24T10:48:53.984Z,21.38
2023-07-24T10:51:59.236Z,21.36
2023-07-24T10:55:04.838Z,21.60
2023-07-24T10:58:07.350Z,21.68
2023-07-24T11:01:10.495Z,21.64
2023-07-24T11:04:13.714Z,21.42
2023-07-24T11:07:15.770Z,21.39
2023-07-24T11:10:22.232Z,21.59
2023-07-24T11:13:28.855Z,21.23
2023-07-24T11:16:34.578Z,21.13
2023-07-24T11:19:36.503Z,21.25
2023-07-24T11:22:43.465Z,21.32
2023-07-24T11:25:45.831Z,21.38
2023-07-24T11:28:47.259Z,21.29
2023-07-24T11:31:55.158Z,21.31
2023-07-24T11:34:57.387Z,21.21
2023-07-24T11:37:58.957Z,21.28
2023-07-24T11:41:02.260Z,21.52
2023-07-24T11:44:04.119Z,21.41
2023-07-24T11:47:06.996Z,21.60
2023-07-24T11:50:09.050Z,21.73
2023-07-24T11:53:23.258Z,21.73
2023-07-24T11:56:24.724Z,21.95
2023-07-24T11:59:26.961Z,21.84
2023-07-24T12:02:29.383Z,22.13
2023-07-24T12:05:31.056Z,21.91
2023-07-24T12:08:34.822Z,21.75
2023-07-24T12:11:46.593Z,22.25
2023-07-24T12:14:48.448Z,22.05
2023-07-24T12:17:49.914Z,22.11
2023-07-24T12:20:51.469Z,22.19
2023-07-24T12:23:52.924Z,22.31
2023-07-24T12:26:54.351Z,22.19
2023-07-24T12:29:55.890Z,22.69
2023-07-24T12:32:57.449Z,22.28
2023-07-24T12:35:58.888Z,22.03
2023-07-24T12:39:00.330Z,22.39
2023-07-24T12:42:01.768Z,22.06
2023-07-24T12:45:06.129Z,22.04
2023-07-24T12:48:07.789Z,22.28
2023-07-24T12:51:09.431Z,22.31
2023-07-24T12:54:22.290Z,22.10
2023-07-24T12:57:32.320Z,22.02
2023-07-24T13:00:33.876Z,21.98
2023-07-24T13:03:35.756Z,22.46
2023-07-24T13:06:37.698Z,22.61
2023-07-24T13:09:39.143Z,22.59
2023-07-24T13:12:40.542Z,22.75
2023-07-24T13:15:42.073Z,22.64
2023-07-24T13:18:44.167Z,23.59
2023-07-24T13:21:47.114Z,23.94
2023-07-24T13:24:48.729Z,24.71
2023-07-24T13:27:51.357Z,24.83
2023-07-24T13:30:53.025Z,24.51
2023-07-24T13:33:54.504Z,23.76
2023-07-24T13:36:56.012Z,23.95
2023-07-24T13:39:57.416Z,24.09
2023-07-24T13:42:58.874Z,24.99
2023-07-24T13:46:00.513Z,24.86
2023-07-24T13:49:02.035Z,24.53
2023-07-24T13:52:03.643Z,24.13
2023-07-24T13:55:05.814Z,24.56
2023-07-24T13:58:07.291Z,24.63
2023-07-24T14:01:08.786Z,24.61
2023-07-24T14:04:10.356Z,24.47
2023-07-24T14:07:14.061Z,23.93
2023-07-24T14:10:15.606Z,23.78
2023-07-24T14:13:17.002Z,24.45
2023-07-24T14:16:18.801Z,24.92
2023-07-24T14:19:20.340Z,24.48
2023-07-24T14:22:21.803Z,23.90
2023-07-24T14:25:23.259Z,23.68
2023-07-24T14:28:24.718Z,23.47
2023-07-24T14:31:26.304Z,23.35
2023-07-24T14:34:27.821Z,23.22
2023-07-24T14:37:29.403Z,22.99
2023-07-24T14:40:30.833Z,22.99
2023-07-24T14:43:32.448Z,23.82
2023-07-24T14:46:33.919Z,24.09
2023-07-24T14:49:35.412Z,24.39
2023-07-24T14:52:36.949Z,24.59
2023-07-24T14:55:38.450Z,24.51
2023-07-24T14:58:43.025Z,24.82
2023-07-24T15:01:44.569Z,24.67
2023-07-24T15:04:52.116Z,24.44
2023-07-24T15:07:53.602Z,24.89
2023-07-24T15:10:55.134Z,24.89
2023-07-24T15:13:56.544Z,24.98
2023-07-24T15:16:58.052Z,24.59
2023-07-24T15:19:59.455Z,24.87
2023-07-24T15:23:01.113Z,24.34
2023-07-24T15:26:02.744Z,24.46
2023-07-24T15:29:04.430Z,24.49
2023-07-24T15:32:07.055Z,24.24
2023-07-24T15:35:08.569Z,24.12
2023-07-24T15:38:09.997Z,23.94
2023-07-24T15:41:11.417Z,23.75
2023-07-24T15:44:12.830Z,23.81
2023-07-24T15:47:14.290Z,23.65
2023-07-24T15:50:15.929Z,23.87
2023-07-24T15:53:17.310Z,23.87
2023-07-24T15:56:18.884Z,23.95
2023-07-24T15:59:20.357Z,24.01
2023-07-24T16:02:21.878Z,23.86
2023-07-24T16:05:23.447Z,23.55
2023-07-24T16:08:25.228Z,23.45
2023-07-24T16:11:28.248Z,23.37
2023-07-24T16:14:30.098Z,23.17
2023-07-24T16:17:33.742Z,23.29
2023-07-24T16:20:36.055Z,22.98
2023-07-24T16:23:37.726Z,22.96
2023-07-24T16:26:39.940Z,22.96
2023-07-24T16:29:41.382Z,22.82
2023-07-24T16:32:49.145Z,21.74
2023-07-24T16:35:52.232Z,21.82
2023-07-24T16:38:53.717Z,21.48
2023-07-24T16:41:55.328Z,21.33
2023-07-24T16:44:59.504Z,21.35
2023-07-24T16:48:03.224Z,21.38
2023-07-24T16:51:05.156Z,21.51
2023-07-24T16:54:06.834Z,21.57
2023-07-24T16:57:08.290Z,21.51
2023-07-24T17:00:10.436Z,21.33
2023-07-24T17:03:12.097Z,21.22
2023-07-24T17:06:13.543Z,21.25
2023-07-24T17:09:15.037Z,21.21
2023-07-24T17:12:16.638Z,21.14
2023-07-24T17:15:18.105Z,21.07
2023-07-24T17:18:19.554Z,21.17
2023-07-24T17:21:22.496Z,21.34
2023-07-24T17:24:24.062Z,20.98
2023-07-24T17:27:26.370Z,21.04
2023-07-24T17:30:27.802Z,21.00
2023-07-24T17:33:29.241Z,21.00
2023-07-24T17:36:30.647Z,20.61
2023-07-24T17:39:32.071Z,20.07
2023-07-24T17:42:33.617Z,20.07
2023-07-24T17:45:35.524Z,20.11
2023-07-24T17:48:37.961Z,19.99
2023-07-24T17:51:39.474Z,19.92
2023-07-24T17:54:46.669Z,19.72
2023-07-24T17:57:50.751Z,19.61
2023-07-24T18:00:53.623Z,19.70
2023-07-24T18:03:55.093Z,19.65
2023-07-24T18:06:56.754Z,19.23
2023-07-24T18:09:58.138Z,19.31
2023-07-24T18:12:59.898Z,19.09
2023-07-24T18:16:01.324Z,19.01
2023-07-24T18:19:04.820Z,18.83
2023-07-24T18:22:06.287Z,18.72
2023-07-24T18:25:08.308Z,18.59
2023-07-24T18:28:12.627Z,18.83
2023-07-24T18:31:14.208Z,18.79
2023-07-24T18:34:16.348Z,18.86
2023-07-24T18:37:17.749Z,19.00
2023-07-24T18:40:19.178Z,18.96
2023-07-24T18:43:20.582Z,18.75
2023-07-24T18:46:22.068Z,18.54
2023-07-24T18:49:23.733Z,18.54
2023-07-24T18:52:25.132Z,18.64
2023-07-24T18:55:26.530Z,18.66
2023-07-24T18:58:28.010Z,18.83
2023-07-24T19:01:29.876Z,18.85
2023-07-24T19:04:31.562Z,18.79
2023-07-24T19:07:32.947Z,18.78
2023-07-24T19:10:34.508Z,18.67
2023-07-24T19:13:37.124Z,18.91
2023-07-24T19:16:38.852Z,18.87
2023-07-24T19:19:40.334Z,18.93
2023-07-24T19:22:41.771Z,18.97
2023-07-24T19:25:43.236Z,18.83
2023-07-24T19:28:50.892Z,18.79
2023-07-24T19:31:53.716Z,18.80
2023-07-24T19:34:57.226Z,18.89
2023-07-24T19:37:58.682Z,18.71
2023-07-24T19:41:01.993Z,18.84
2023-07-24T19:44:03.445Z,18.60
2023-07-24T19:47:05.301Z,18.54
2023-07-24T19:50:07.379Z,18.58
2023-07-24T19:53:08.916Z,18.50
2023-07-24T19:56:10.510Z,18.43
2023-07-24T19:59:11.989Z,18.30
2023-07-24T20:02:13.748Z,18.37
2023-07-24T20:05:15.254Z,18.37
2023-07-24T20:08:16.714Z,18.49
2023-07-24T20:11:18.165Z,18.41
2023-07-24T20:14:19.661Z,18.40
2023-07-24T20:17:21.138Z,18.46
2023-07-24T20:20:22.642Z,18.53
2023-07-24T20:23:24.485Z,18.67
2023-07-24T20:26:25.962Z,18.48
2023-07-24T20:29:27.404Z,18.67
2023-07-24T20:32:30.552Z,18.55
2023-07-24T20:35:33.367Z,18.22
2023-07-24T20:38:36.372Z,18.44
2023-07-24T20:41:37.819Z,18.25
2023-07-24T20:44:39.207Z,18.33
2023-07-24T20:47:40.685Z,18.16
2023-07-24T20:50:42.141Z,18.30
2023-07-24T20:53:43.916Z,18.12
2023-07-24T20:56:45.317Z,18.08
2023-07-24T20:59:47.576Z,18.27
2023-07-24T21:02:49.140Z,18.27
2023-07-24T21:05:50.695Z,18.20
2023-07-24T21:08:52.183Z,18.27
2023-07-24T21:11:53.625Z,18.14
2023-07-24T21:14:55.058Z,18.08
2023-07-24T21:17:56.522Z,18.16
2023-07-24T21:21:00.660Z,17.96
2023-07-24T21:24:03.353Z,17.85
2023-07-24T21:27:04.996Z,17.76
2023-07-24T21:30:07.556Z,17.70
2023-07-24T21:33:08.948Z,17.77
2023-07-24T21:36:10.603Z,17.70
2023-07-24T21:39:12.047Z,17.69
2023-07-24T21:42:13.468Z,17.81
2023-07-24T21:45:14.965Z,17.89
2023-07-24T21:48:16.790Z,17.87
2023-07-24T21:51:18.210Z,17.71
2023-07-24T21:54:19.662Z,17.76
2023-07-24T21:57:22.664Z,17.71
2023-07-24T22:00:26.063Z,17.63
2023-07-24T22:03:27.590Z,17.73
2023-07-24T22:06:29.208Z,17.54
2023-07-24T22:09:31.096Z,17.59
2023-07-24T22:12:33.869Z,17.55
2023-07-24T22:15:35.338Z,17.64
2023-07-24T22:18:36.826Z,17.51
2023-07-24T22:21:38.248Z,17.59
2023-07-24T22:24:40.430Z,17.58
2023-07-24T22:27:41.972Z,17.57
2023-07-24T22:30:43.519Z,17.61
2023-07-24T22:33:44.949Z,17.54
2023-07-24T22:36:46.360Z,17.42
2023-07-24T22:39:48.079Z,17.39
2023-07-24T22:42:49.507Z,17.39
2023-07-24T22:45:51.070Z,17.31
2023-07-24T22:48:52.537Z,17.16
2023-07-24T22:51:54.419Z,17.12
2023-07-24T22:54:55.944Z,17.11
2023-07-24T22:57:57.975Z,17.25
2023-07-24T23:00:59.506Z,17.19
2023-07-24T23:04:01.018Z,17.11
2023-07-24T23:07:02.477Z,16.93
2023-07-24T23:10:04.159Z,16.79
2023-07-24T23:13:05.661Z,16.91
2023-07-24T23:16:07.315Z,16.88
2023-07-24T23:19:09.064Z,16.77
2023-07-24T23:22:10.529Z,16.70
2023-07-24T23:25:11.908Z,16.74
2023-07-24T23:28:14.421Z,16.66
2023-07-24T23:31:15.912Z,16.46
2023-07-24T23:34:17.364Z,16.48
2023-07-24T23:37:18.772Z,16.43
2023-07-24T23:40:20.177Z,16.49
2023-07-24T23:43:21.598Z,16.54
2023-07-24T23:46:23.061Z,16.58
2023-07-24T23:49:24.554Z,16.53
2023-07-24T23:52:25.976Z,16.61
2023-07-24T23:55:31.570Z,16.59
2023-07-24T23:58:32.970Z,16.55
